« Back
NWS Peachtree City, Ga » Text Product » ATL Terminal Aerodrome Forecast


Printer-friendly Version
Current Version              Previous Versions:   1  2  3  4  5  6  7  8  9  

Terminal Aerodrome Forecast

396
FTUS42 KFFC 290730 AAA
TAFATL
TAF AMD
KATL 290730Z 2908/3012 28005KT P6SM FEW250
     FM291700 30006KT P6SM FEW045
     FM300100 20003KT P6SM FEW250
     FM301000 15003KT P6SM SCT250=



USA.gov is the U.S. government's official web portal to all federal, state and local government web resources and services.